createdAt,value
2023-04-15T00:02:15.416Z,97396.27
2023-04-15T00:04:47.490Z,97392.48
2023-04-15T00:07:16.666Z,97388.85
2023-04-15T00:09:45.431Z,97393.15
2023-04-15T00:12:14.295Z,97388.48
2023-04-15T00:14:43.823Z,97388.66
2023-04-15T00:17:12.754Z,97389.35
2023-04-15T00:19:41.556Z,97383.66
2023-04-15T00:22:10.450Z,97384.30
2023-04-15T00:24:39.417Z,97377.55
2023-04-15T00:27:08.040Z,97372.86
2023-04-15T00:29:36.826Z,97362.31
2023-04-15T00:32:05.624Z,97370.44
2023-04-15T00:34:35.010Z,97372.47
2023-04-15T00:37:03.841Z,97375.73
2023-04-15T00:39:32.604Z,97379.17
2023-04-15T00:42:01.678Z,97386.55
2023-04-15T00:44:30.631Z,97382.36
2023-04-15T00:47:00.965Z,97379.73
2023-04-15T00:49:30.405Z,97374.35
2023-04-15T00:51:59.041Z,97373.11
2023-04-15T00:54:27.732Z,97379.84
2023-04-15T00:56:57.298Z,97380.68
2023-04-15T00:59:26.018Z,97384.48
2023-04-15T01:01:54.858Z,97380.86
2023-04-15T01:04:24.457Z,97377.05
2023-04-15T01:06:53.455Z,97379.48
2023-04-15T01:09:22.527Z,97378.11
2023-04-15T01:11:53.101Z,97375.86
2023-04-15T01:14:22.174Z,97375.68
2023-04-15T01:16:51.074Z,97375.86
2023-04-15T01:19:20.690Z,97375.34
2023-04-15T01:21:49.718Z,97371.73
2023-04-15T01:24:19.312Z,97367.76
2023-04-15T01:26:50.454Z,97368.30
2023-04-15T01:29:19.728Z,97374.16
2023-04-15T01:31:53.230Z,97375.89
2023-04-15T01:34:22.630Z,97373.29
2023-04-15T01:36:55.579Z,97372.77
2023-04-15T01:39:24.403Z,97372.08
2023-04-15T01:41:52.853Z,97372.95
2023-04-15T01:44:22.313Z,97373.98
2023-04-15T01:46:50.972Z,97378.64
2023-04-15T01:49:19.842Z,97380.52
2023-04-15T01:51:48.824Z,97373.44
2023-04-15T01:54:17.600Z,97374.13
2023-04-15T01:56:46.284Z,97377.05
2023-04-15T01:59:14.933Z,97376.88
2023-04-15T02:01:44.142Z,97375.32
2023-04-15T02:04:17.696Z,97375.52
2023-04-15T02:06:47.160Z,97373.27
2023-04-15T02:09:15.942Z,97376.90
2023-04-15T02:11:48.127Z,97378.27
2023-04-15T02:14:16.547Z,97378.63
2023-04-15T02:16:45.021Z,97377.24
2023-04-15T02:19:14.409Z,97380.02
2023-04-15T02:21:42.790Z,97380.18
2023-04-15T02:24:12.596Z,97393.46
2023-04-15T02:26:43.922Z,97402.24
2023-04-15T02:29:12.500Z,97401.10
2023-04-15T02:31:42.623Z,97401.83
2023-04-15T02:34:12.025Z,97402.83
2023-04-15T02:36:41.264Z,97395.92
2023-04-15T02:39:10.073Z,97395.68
2023-04-15T02:41:39.117Z,97406.34
2023-04-15T02:44:11.450Z,97406.61
2023-04-15T02:46:41.917Z,97406.33
2023-04-15T02:49:11.265Z,97408.98
2023-04-15T02:51:39.991Z,97406.77
2023-04-15T02:54:09.349Z,97407.69
2023-04-15T02:56:38.236Z,97406.81
2023-04-15T02:59:06.948Z,97405.79
2023-04-15T03:01:35.931Z,97407.84
2023-04-15T03:04:05.129Z,97412.69
2023-04-15T03:06:33.631Z,97408.34
2023-04-15T03:09:04.229Z,97408.13
2023-04-15T03:11:40.852Z,97407.06
2023-04-15T03:14:11.919Z,97414.95
2023-04-15T03:16:43.263Z,97423.38
2023-04-15T03:19:11.903Z,97430.10
2023-04-15T03:21:41.020Z,97439.27
2023-04-15T03:24:10.412Z,97436.53
2023-04-15T03:26:38.962Z,97435.54
2023-04-15T03:29:13.445Z,97440.40
2023-04-15T03:31:42.652Z,97449.06
2023-04-15T03:34:11.236Z,97450.31
2023-04-15T03:36:40.605Z,97451.20
2023-04-15T03:39:09.170Z,97450.52
2023-04-15T03:41:37.600Z,97454.82
2023-04-15T03:44:06.815Z,97450.31
2023-04-15T03:46:35.297Z,97453.60
2023-04-15T03:49:04.275Z,97457.79
2023-04-15T03:51:33.569Z,97457.63
2023-04-15T03:54:02.578Z,97458.17
2023-04-15T03:56:31.297Z,97457.66
2023-04-15T03:59:01.202Z,97458.36
2023-04-15T04:01:30.147Z,97464.42
2023-04-15T04:03:58.766Z,97469.26
2023-04-15T04:06:28.042Z,97478.77
2023-04-15T04:08:57.131Z,97484.30
2023-04-15T04:11:25.920Z,97483.09
2023-04-15T04:13:54.946Z,97482.23
2023-04-15T04:16:23.584Z,97485.85
2023-04-15T04:18:52.009Z,97484.65
2023-04-15T04:21:22.020Z,97485.52
2023-04-15T04:23:51.014Z,97490.36
2023-04-15T04:26:20.072Z,97493.31
2023-04-15T04:28:49.004Z,97493.13
2023-04-15T04:31:17.519Z,97490.89
2023-04-15T04:33:46.754Z,97491.92
2023-04-15T04:36:16.149Z,97497.63
2023-04-15T04:38:44.625Z,97501.09
2023-04-15T04:41:13.504Z,97505.24
2023-04-15T04:43:43.061Z,97509.05
2023-04-15T04:46:12.345Z,97514.39
2023-04-15T04:48:41.297Z,97519.06
2023-04-15T04:51:10.343Z,97521.98
2023-04-15T04:53:38.839Z,97525.79
2023-04-15T04:56:07.426Z,97531.34
2023-04-15T04:58:36.718Z,97534.98
2023-04-15T05:01:05.269Z,97544.82
2023-04-15T05:03:33.948Z,97551.02
2023-04-15T05:06:06.513Z,97554.48
2023-04-15T05:08:35.114Z,97554.83
2023-04-15T05:11:04.321Z,97562.60
2023-04-15T05:13:33.272Z,97557.44
2023-04-15T05:16:02.305Z,97561.20
2023-04-15T05:18:31.308Z,97566.21
2023-04-15T05:21:00.752Z,97563.45
2023-04-15T05:23:29.651Z,97564.97
2023-04-15T05:25:58.713Z,97563.55
2023-04-15T05:28:27.751Z,97560.78
2023-04-15T05:30:56.655Z,97568.70
2023-04-15T05:33:25.894Z,97571.79
2023-04-15T05:35:54.747Z,97575.06
2023-04-15T05:38:23.655Z,97581.61
2023-04-15T05:40:52.516Z,97583.67
2023-04-15T05:43:21.393Z,97581.33
2023-04-15T05:45:49.817Z,97579.48
2023-04-15T05:48:18.815Z,97580.63
2023-04-15T05:50:48.039Z,97581.84
2023-04-15T05:53:16.742Z,97581.18
2023-04-15T05:55:45.726Z,97581.06
2023-04-15T05:58:14.534Z,97582.32
2023-04-15T06:00:44.203Z,97587.02
2023-04-15T06:03:13.617Z,97589.10
2023-04-15T06:05:43.150Z,97591.50
2023-04-15T06:08:11.599Z,97597.55
2023-04-15T06:10:40.533Z,97597.70
2023-04-15T06:13:09.744Z,97601.84
2023-04-15T06:15:38.356Z,97598.70
2023-04-15T06:18:06.914Z,97605.89
2023-04-15T06:20:37.101Z,97617.59
2023-04-15T06:23:05.402Z,97618.74
2023-04-15T06:25:34.191Z,97626.54
2023-04-15T06:28:03.489Z,97636.95
2023-04-15T06:30:32.026Z,97640.95
2023-04-15T06:33:00.720Z,97638.77
2023-04-15T06:35:29.459Z,97630.04
2023-04-15T06:37:58.144Z,97634.07
2023-04-15T06:40:27.204Z,97644.55
2023-04-15T06:42:56.240Z,97653.38
2023-04-15T06:45:24.791Z,97654.05
2023-04-15T06:47:53.467Z,97659.13
2023-04-15T06:50:22.500Z,97660.11
2023-04-15T06:52:51.186Z,97659.83
2023-04-15T06:55:20.051Z,97661.05
2023-04-15T06:57:49.270Z,97659.33
2023-04-15T07:00:18.125Z,97662.01
2023-04-15T07:02:47.084Z,97668.25
2023-04-15T07:05:16.232Z,97672.90
2023-04-15T07:07:45.690Z,97674.31
2023-04-15T07:10:16.287Z,97679.86
2023-04-15T07:12:45.699Z,97680.43
2023-04-15T07:15:14.146Z,97680.05
2023-04-15T07:17:43.641Z,97682.26
2023-04-15T07:20:13.329Z,97684.35
2023-04-15T07:22:41.833Z,97685.09
2023-04-15T07:25:10.418Z,97687.92
2023-04-15T07:27:39.305Z,97690.73
2023-04-15T07:30:08.313Z,97691.70
2023-04-15T07:32:37.316Z,97692.30
2023-04-15T07:35:06.486Z,97692.41
2023-04-15T07:37:37.596Z,97697.78
2023-04-15T07:40:07.856Z,97697.91
2023-04-15T07:42:38.061Z,97700.71
2023-04-15T07:45:09.983Z,97705.73
2023-04-15T07:47:42.368Z,97704.22
2023-04-15T07:50:15.108Z,97702.86
2023-04-15T07:52:49.907Z,97699.50
2023-04-15T07:55:28.332Z,97700.86
2023-04-15T07:57:57.601Z,97705.84
2023-04-15T08:00:27.187Z,97707.60
2023-04-15T08:02:58.036Z,97713.19
2023-04-15T08:05:26.713Z,97717.19
2023-04-15T08:07:55.330Z,97719.10
2023-04-15T08:10:24.096Z,97722.38
2023-04-15T08:12:54.697Z,97724.30
2023-04-15T08:15:23.730Z,97725.96
2023-04-15T08:17:52.570Z,97735.58
2023-04-15T08:20:21.175Z,97735.15
2023-04-15T08:22:52.273Z,97739.72
2023-04-15T08:25:21.012Z,97738.48
2023-04-15T08:27:49.556Z,97735.54
2023-04-15T08:30:18.419Z,97730.02
2023-04-15T08:32:47.637Z,97733.58
2023-04-15T08:35:16.813Z,97732.04
2023-04-15T08:37:46.349Z,97733.09
2023-04-15T08:40:15.064Z,97734.38
2023-04-15T08:42:49.305Z,97733.98
2023-04-15T08:45:18.838Z,97734.65
2023-04-15T08:47:50.105Z,97733.61
2023-04-15T08:50:20.658Z,97738.91
2023-04-15T08:52:49.871Z,97747.31
2023-04-15T08:55:18.475Z,97748.71
2023-04-15T08:57:47.528Z,97750.80
2023-04-15T09:00:16.678Z,97751.13
2023-04-15T09:02:45.526Z,97748.22
2023-04-15T09:05:14.567Z,97750.08
2023-04-15T09:07:44.944Z,97753.17
2023-04-15T09:10:13.479Z,97757.27
2023-04-15T09:12:42.981Z,97762.02
2023-04-15T09:15:16.698Z,97761.83
2023-04-15T09:17:46.715Z,97760.23
2023-04-15T09:20:18.909Z,97763.97
2023-04-15T09:22:50.247Z,97769.40
2023-04-15T09:25:22.979Z,97774.64
2023-04-15T09:27:54.127Z,97773.88
2023-04-15T09:30:23.082Z,97772.35
2023-04-15T09:33:00.148Z,97771.08
2023-04-15T09:35:29.290Z,97770.53
2023-04-15T09:38:06.917Z,97768.17
2023-04-15T09:40:41.434Z,97772.24
2023-04-15T09:43:13.342Z,97776.14
2023-04-15T09:45:50.204Z,97775.00
2023-04-15T09:48:22.043Z,97778.08
2023-04-15T09:50:51.436Z,97779.73
2023-04-15T09:53:21.911Z,97785.23
2023-04-15T09:55:59.194Z,97792.98
2023-04-15T09:58:30.008Z,97791.23
2023-04-15T10:01:01.061Z,97784.16
2023-04-15T10:03:32.120Z,97783.98
2023-04-15T10:06:02.709Z,97784.81
2023-04-15T10:08:35.075Z,97789.38
2023-04-15T10:11:05.468Z,97790.40
2023-04-15T10:13:36.658Z,97789.48
2023-04-15T10:16:14.945Z,97792.65
2023-04-15T10:18:46.489Z,97793.08
2023-04-15T10:21:18.993Z,97793.55
2023-04-15T10:23:48.179Z,97796.52
2023-04-15T10:26:18.282Z,97799.32
2023-04-15T10:28:48.751Z,97808.58
2023-04-15T10:31:18.727Z,97809.46
2023-04-15T10:33:48.990Z,97811.08
2023-04-15T10:36:20.559Z,97809.41
2023-04-15T10:38:49.305Z,97809.52
2023-04-15T10:41:30.051Z,97811.64
2023-04-15T10:44:05.026Z,97811.73
2023-04-15T10:46:43.944Z,97815.01
2023-04-15T10:49:17.922Z,97804.42
2023-04-15T10:51:54.970Z,97803.75
2023-04-15T10:54:27.219Z,97811.21
2023-04-15T10:57:03.204Z,97806.78
2023-04-15T10:59:33.302Z,97809.63
2023-04-15T11:02:04.467Z,97808.77
2023-04-15T11:04:52.393Z,97812.83
2023-04-15T11:07:54.807Z,97819.38
2023-04-15T11:10:26.287Z,97818.85
2023-04-15T11:12:58.995Z,97822.29
2023-04-15T11:15:42.046Z,97820.66
2023-04-15T11:18:13.987Z,97824.04
2023-04-15T11:20:48.046Z,97829.58
2023-04-15T11:23:38.786Z,97829.57
2023-04-15T11:26:12.433Z,97833.38
2023-04-15T11:28:43.029Z,97835.77
2023-04-15T11:31:15.281Z,97839.96
2023-04-15T11:34:03.497Z,97841.30
2023-04-15T11:36:32.441Z,97845.64
2023-04-15T11:39:01.113Z,97849.39
2023-04-15T11:41:30.763Z,97852.61
2023-04-15T11:43:59.604Z,97856.77
2023-04-15T11:46:34.856Z,97860.81
2023-04-15T11:49:05.104Z,97862.15
2023-04-15T11:51:50.951Z,97864.73
2023-04-15T11:54:22.794Z,97864.35
2023-04-15T11:56:53.174Z,97867.65
2023-04-15T11:59:21.641Z,97872.20
2023-04-15T12:01:52.693Z,97871.86
2023-04-15T12:04:25.376Z,97871.41
2023-04-15T12:06:54.749Z,97869.90
2023-04-15T12:09:23.194Z,97872.92
2023-04-15T12:11:56.130Z,97873.94
2023-04-15T12:14:32.410Z,97874.48
2023-04-15T12:17:05.541Z,97877.42
2023-04-15T12:19:42.191Z,97877.27
2023-04-15T12:22:16.095Z,97881.13
2023-04-15T12:24:48.162Z,97878.48
2023-04-15T12:27:17.954Z,97881.89
2023-04-15T12:29:46.815Z,97887.63
2023-04-15T12:32:17.279Z,97888.95
2023-04-15T12:34:52.020Z,97895.03
2023-04-15T12:37:20.891Z,97895.66
2023-04-15T12:39:50.691Z,97894.70
2023-04-15T12:42:20.352Z,97898.20
2023-04-15T12:44:49.170Z,97899.55
2023-04-15T12:47:17.826Z,97902.73
2023-04-15T12:49:47.316Z,97906.52
2023-04-15T12:52:16.860Z,97903.95
2023-04-15T12:54:45.371Z,97904.33
2023-04-15T12:57:14.408Z,97907.12
2023-04-15T12:59:43.506Z,97904.64
2023-04-15T13:02:12.055Z,97904.14
2023-04-15T13:04:41.400Z,97906.79
2023-04-15T13:07:10.916Z,97908.31
2023-04-15T13:09:39.918Z,97912.95
2023-04-15T13:12:08.781Z,97915.11
2023-04-15T13:14:38.187Z,97917.97
2023-04-15T13:17:10.598Z,97915.55
2023-04-15T13:19:39.740Z,97916.86
2023-04-15T13:22:09.107Z,97917.73
2023-04-15T13:24:38.038Z,97915.76
2023-04-15T13:27:08.637Z,97921.45
2023-04-15T13:29:37.050Z,97919.98
2023-04-15T13:32:06.354Z,97918.90
2023-04-15T13:34:35.716Z,97919.49
2023-04-15T13:37:10.734Z,97920.03
2023-04-15T13:39:39.382Z,97925.95
2023-04-15T13:42:07.929Z,97924.79
2023-04-15T13:44:36.863Z,97922.08
2023-04-15T13:47:06.355Z,97926.96
2023-04-15T13:49:35.031Z,97926.48
2023-04-15T13:52:03.765Z,97920.37
2023-04-15T13:54:37.628Z,97922.77
2023-04-15T13:57:07.362Z,97925.17
2023-04-15T13:59:36.626Z,97929.77
2023-04-15T14:02:05.328Z,97924.23
2023-04-15T14:04:34.635Z,97924.72
2023-04-15T14:07:05.283Z,97928.07
2023-04-15T14:09:36.135Z,97930.02
2023-04-15T14:12:06.008Z,97927.95
2023-04-15T14:14:35.028Z,97930.11
2023-04-15T14:17:05.154Z,97931.36
2023-04-15T14:19:35.359Z,97933.09
2023-04-15T14:22:03.991Z,97935.48
2023-04-15T14:24:32.946Z,97935.48
2023-04-15T14:27:02.530Z,97940.05
2023-04-15T14:29:31.453Z,97945.84
2023-04-15T14:32:11.592Z,97950.27
2023-04-15T14:34:41.682Z,97955.20
2023-04-15T14:37:10.403Z,97956.81
2023-04-15T14:39:38.959Z,97960.02
2023-04-15T14:42:07.815Z,97962.31
2023-04-15T14:44:36.674Z,97965.40
2023-04-15T14:47:06.439Z,97964.06
2023-04-15T14:49:35.312Z,97960.61
2023-04-15T14:52:04.450Z,97959.67
2023-04-15T14:54:33.432Z,97953.66
2023-04-15T14:57:02.435Z,97954.16
2023-04-15T14:59:31.378Z,97959.39
2023-04-15T15:02:00.361Z,97965.46
2023-04-15T15:04:29.972Z,97971.42
2023-04-15T15:06:58.848Z,97972.89
2023-04-15T15:09:27.631Z,97976.38
2023-04-15T15:11:57.646Z,97978.52
2023-04-15T15:14:26.985Z,97980.41
2023-04-15T15:16:55.598Z,97982.79
2023-04-15T15:19:25.214Z,97989.05
2023-04-15T15:21:54.064Z,97992.95
2023-04-15T15:24:22.537Z,97992.25
2023-04-15T15:26:51.740Z,97998.15
2023-04-15T15:29:20.602Z,98005.33
2023-04-15T15:31:49.524Z,98006.19
2023-04-15T15:34:18.778Z,98006.27
2023-04-15T15:36:47.600Z,98008.13
2023-04-15T15:39:16.453Z,98006.73
2023-04-15T15:41:45.389Z,98008.05
2023-04-15T15:44:13.979Z,98012.16
2023-04-15T15:46:42.527Z,98013.17
2023-04-15T15:49:11.886Z,98018.75
2023-04-15T15:51:40.750Z,98019.46
2023-04-15T15:54:09.195Z,98021.23
2023-04-15T15:56:39.758Z,98021.43
2023-04-15T15:59:08.451Z,98024.73
2023-04-15T16:01:36.946Z,98026.69
2023-04-15T16:04:06.150Z,98028.56
2023-04-15T16:06:35.561Z,98026.79
2023-04-15T16:09:04.531Z,98029.05
2023-04-15T16:11:33.554Z,98032.23
2023-04-15T16:14:02.485Z,98036.47
2023-04-15T16:16:31.392Z,98036.55
2023-04-15T16:19:00.506Z,98040.59
2023-04-15T16:21:29.711Z,98045.64
2023-04-15T16:23:58.406Z,98043.66
2023-04-15T16:26:27.235Z,98051.94
2023-04-15T16:28:55.765Z,98049.41
2023-04-15T16:31:24.786Z,98052.41
2023-04-15T16:33:53.907Z,98052.60
2023-04-15T16:36:22.691Z,98057.13
2023-04-15T16:38:51.578Z,98059.29
2023-04-15T16:41:21.237Z,98059.05
2023-04-15T16:43:50.380Z,98060.69
2023-04-15T16:46:19.216Z,98062.34
2023-04-15T16:48:47.834Z,98063.30
2023-04-15T16:51:16.522Z,98065.98
2023-04-15T16:53:45.906Z,98064.95
2023-04-15T16:56:14.773Z,98067.11
2023-04-15T16:58:43.796Z,98069.95
2023-04-15T17:01:12.551Z,98071.91
2023-04-15T17:03:41.384Z,98074.59
2023-04-15T17:06:10.584Z,98076.22
2023-04-15T17:08:40.441Z,98080.09
2023-04-15T17:11:09.054Z,98082.56
2023-04-15T17:13:37.958Z,98084.69
2023-04-15T17:16:06.843Z,98085.41
2023-04-15T17:18:35.620Z,98087.56
2023-04-15T17:21:05.969Z,98094.39
2023-04-15T17:23:34.876Z,98096.31
2023-04-15T17:26:03.797Z,98100.85
2023-04-15T17:28:32.859Z,98105.73
2023-04-15T17:31:02.160Z,98109.92
2023-04-15T17:34:00.153Z,98115.15
2023-04-15T17:36:20.611Z,98119.36
2023-04-15T17:38:49.826Z,98117.83
2023-04-15T17:41:18.285Z,98123.76
2023-04-15T17:43:47.079Z,98125.34
2023-04-15T17:46:15.955Z,98122.41
2023-04-15T17:48:44.456Z,98125.92
2023-04-15T17:51:13.716Z,98131.14
2023-04-15T17:53:42.386Z,98135.64
2023-04-15T17:56:11.328Z,98140.14
2023-04-15T17:58:39.844Z,98143.42
2023-04-15T18:01:08.692Z,98152.28
2023-04-15T18:03:37.751Z,98158.16
2023-04-15T18:06:06.744Z,98164.23
2023-04-15T18:08:36.513Z,98170.30
2023-04-15T18:11:05.617Z,98176.90
2023-04-15T18:13:34.710Z,98186.06
2023-04-15T18:16:03.718Z,98193.70
2023-04-15T18:18:34.086Z,98194.05
2023-04-15T18:21:03.765Z,98201.52
2023-04-15T18:23:33.090Z,98205.66
2023-04-15T18:26:01.837Z,98212.44
2023-04-15T18:28:31.753Z,98219.04
2023-04-15T18:31:01.815Z,98222.48
2023-04-15T18:33:30.548Z,98225.96
2023-04-15T18:35:59.475Z,98236.53
2023-04-15T18:38:29.130Z,98243.12
2023-04-15T18:40:57.617Z,98248.15
2023-04-15T18:43:26.430Z,98247.63
2023-04-15T18:45:55.270Z,98252.65
2023-04-15T18:48:24.163Z,98250.05
2023-04-15T18:50:54.759Z,98252.14
2023-04-15T18:53:24.018Z,98255.24
2023-04-15T18:55:52.794Z,98256.98
2023-04-15T18:58:21.835Z,98259.92
2023-04-15T19:00:51.002Z,98265.46
2023-04-15T19:03:25.012Z,98271.02
2023-04-15T19:05:54.015Z,98278.30
2023-04-15T19:08:22.457Z,98279.67
2023-04-15T19:10:52.122Z,98280.36
2023-04-15T19:13:22.834Z,98283.30
2023-04-15T19:15:52.131Z,98286.77
2023-04-15T19:18:21.498Z,98287.29
2023-04-15T19:20:53.111Z,98289.03
2023-04-15T19:23:23.111Z,98291.45
2023-04-15T19:25:51.732Z,98295.27
2023-04-15T19:28:20.502Z,98294.75
2023-04-15T19:30:49.955Z,98296.64
2023-04-15T19:33:18.950Z,98298.55
2023-04-15T19:35:50.340Z,98302.19
2023-04-15T19:38:19.279Z,98301.14
2023-04-15T19:40:48.422Z,98306.69
2023-04-15T19:43:17.334Z,98304.09
2023-04-15T19:45:47.197Z,98305.30
2023-04-15T19:48:16.522Z,98309.11
2023-04-15T19:50:45.576Z,98306.33
2023-04-15T19:53:14.781Z,98308.42
2023-04-15T19:55:43.714Z,98311.88
2023-04-15T19:58:12.343Z,98318.11
2023-04-15T20:00:41.631Z,98320.52
2023-04-15T20:03:11.311Z,98321.91
2023-04-15T20:05:39.905Z,98324.33
2023-04-15T20:08:09.232Z,98328.14
2023-04-15T20:10:38.121Z,98329.70
2023-04-15T20:13:06.767Z,98330.55
2023-04-15T20:15:36.037Z,98331.59
2023-04-15T20:18:04.636Z,98338.85
2023-04-15T20:20:35.044Z,98335.55
2023-04-15T20:23:03.972Z,98337.97
2023-04-15T20:25:32.694Z,98334.87
2023-04-15T20:28:01.373Z,98335.73
2023-04-15T20:30:31.102Z,98340.77
2023-04-15T20:33:00.882Z,98346.84
2023-04-15T20:35:31.177Z,98348.90
2023-04-15T20:38:00.433Z,98350.81
2023-04-15T20:40:29.739Z,98354.95
2023-04-15T20:42:58.492Z,98355.30
2023-04-15T20:45:27.125Z,98354.27
2023-04-15T20:47:56.529Z,98354.44
2023-04-15T20:50:24.939Z,98354.77
2023-04-15T20:52:53.671Z,98353.37
2023-04-15T20:55:22.503Z,98353.70
2023-04-15T20:57:51.108Z,98352.12
2023-04-15T21:00:19.989Z,98353.84
2023-04-15T21:02:49.033Z,98354.02
2023-04-15T21:05:18.081Z,98355.90
2023-04-15T21:07:46.930Z,98352.94
2023-04-15T21:10:15.753Z,98355.51
2023-04-15T21:12:44.808Z,98363.11
2023-04-15T21:15:13.814Z,98370.20
2023-04-15T21:17:42.727Z,98376.26
2023-04-15T21:20:11.945Z,98382.33
2023-04-15T21:22:41.100Z,98384.76
2023-04-15T21:25:10.065Z,98388.20
2023-04-15T21:27:38.729Z,98387.30
2023-04-15T21:30:08.291Z,98391.24
2023-04-15T21:32:37.019Z,98396.59
2023-04-15T21:35:06.477Z,98399.35
2023-04-15T21:37:35.281Z,98398.98
2023-04-15T21:40:05.163Z,98398.83
2023-04-15T21:42:33.674Z,98402.80
2023-04-15T21:45:02.681Z,98406.80
2023-04-15T21:47:31.938Z,98407.15
2023-04-15T21:50:20.761Z,98411.46
2023-04-15T21:52:49.677Z,98411.95
2023-04-15T21:55:18.417Z,98411.92
2023-04-15T21:57:47.516Z,98418.78
2023-04-15T22:00:16.725Z,98421.86
2023-04-15T22:02:45.413Z,98421.13
2023-04-15T22:05:14.363Z,98422.46
2023-04-15T22:07:43.610Z,98425.42
2023-04-15T22:10:12.159Z,98425.79
2023-04-15T22:12:42.490Z,98425.11
2023-04-15T22:15:11.510Z,98427.20
2023-04-15T22:17:39.998Z,98434.22
2023-04-15T22:20:09.571Z,98439.33
2023-04-15T22:22:44.304Z,98443.44
2023-04-15T22:25:13.817Z,98439.95
2023-04-15T22:27:42.955Z,98437.87
2023-04-15T22:30:11.940Z,98442.88
2023-04-15T22:32:40.886Z,98444.58
2023-04-15T22:35:09.838Z,98444.73
2023-04-15T22:37:38.292Z,98444.00
2023-04-15T22:40:07.687Z,98450.40
2023-04-15T22:42:36.603Z,98450.04
2023-04-15T22:45:05.755Z,98451.21
2023-04-15T22:47:34.578Z,98455.33
2023-04-15T22:50:03.868Z,98456.35
2023-04-15T22:52:32.443Z,98461.00
2023-04-15T22:55:01.521Z,98467.23
2023-04-15T22:57:30.352Z,98466.17
2023-04-15T22:59:58.842Z,98469.48
2023-04-15T23:02:28.101Z,98465.52
2023-04-15T23:04:58.056Z,98464.34
2023-04-15T23:07:26.531Z,98463.13
2023-04-15T23:09:55.402Z,98465.72
2023-04-15T23:12:24.297Z,98465.02
2023-04-15T23:14:52.717Z,98464.98
2023-04-15T23:17:21.926Z,98462.00
2023-04-15T23:19:50.758Z,98459.00
2023-04-15T23:22:19.300Z,98456.69
2023-04-15T23:24:48.328Z,98458.37
2023-04-15T23:27:19.248Z,98458.94
2023-04-15T23:29:47.693Z,98458.67
2023-04-15T23:32:16.662Z,98454.63
2023-04-15T23:34:45.588Z,98455.23
2023-04-15T23:37:15.853Z,98457.75
2023-04-15T23:39:44.961Z,98464.00
2023-04-15T23:42:13.873Z,98468.90
2023-04-15T23:44:42.298Z,98474.16
2023-04-15T23:47:11.347Z,98472.73
2023-04-15T23:49:41.218Z,98477.47
2023-04-15T23:52:09.702Z,98478.02
2023-04-15T23:54:38.307Z,98480.38
2023-04-15T23:57:07.428Z,98483.11
2023-04-15T23:59:36.484Z,98482.08
